Time;durP1;ratioP1;P1;durP2;ratioP2;P2;SDS_P1;SDS_P2;PMS_P1;PMS_P2;Temp;Humidity;BMP_temperature;BMP_pressure;BME280_temperature;BME280_humidity;BME280_pressure;Samples;Min_cycle;Max_cycle;Signal;HPM_P1;HPM_P2
2022/03/22 00:00:33;;;;;;;7.55;5.22;;;10.20;99.90;;;;;;6305079;22;20003;-89
2022/03/22 00:02:59;;;;;;;6.87;5.07;;;10.20;99.90;;;;;;6306049;22;20049;-89
2022/03/22 00:05:25;;;;;;;7.20;4.93;;;10.10;99.90;;;;;;6304872;22;20015;-89
2022/03/22 00:07:51;;;;;;;7.18;5.43;;;10.10;99.90;;;;;;6304426;22;20031;-88
2022/03/22 00:10:17;;;;;;;8.23;5.25;;;10.10;99.90;;;;;;6304792;22;20049;-90
2022/03/22 00:12:44;;;;;;;6.63;5.63;;;10.00;99.90;;;;;;6304562;22;20079;-89
2022/03/22 00:15:11;;;;;;;9.40;5.45;;;10.00;99.90;;;;;;6310831;22;20094;-89
2022/03/22 00:17:38;;;;;;;9.18;5.32;;;9.90;99.90;;;;;;6307523;22;20026;-90
2022/03/22 00:20:10;;;;;;;8.48;5.57;;;9.90;99.90;;;;;;6308189;22;20027;-89
2022/03/22 00:22:40;;;;;;;9.55;5.72;;;9.80;99.90;;;;;;6307788;22;20038;-90
2022/03/22 00:25:07;;;;;;;10.10;5.50;;;9.90;99.90;;;;;;6307635;22;20098;-89
2022/03/22 00:27:50;;;;;;;7.57;5.78;;;9.80;99.90;;;;;;6310960;22;19999;-90
2022/03/22 00:30:37;;;;;;;10.27;6.30;;;9.70;99.90;;;;;;6306831;22;20013;-90
2022/03/22 00:33:06;;;;;;;7.78;5.75;;;9.70;99.90;;;;;;6297215;22;20066;-90
2022/03/22 00:35:35;;;;;;;8.77;6.03;;;9.70;99.90;;;;;;6309041;22;19995;-89
2022/03/22 00:38:03;;;;;;;7.28;5.80;;;9.60;99.90;;;;;;6309335;22;20388;-89
2022/03/22 00:40:30;;;;;;;8.20;6.30;;;9.60;99.90;;;;;;6311799;22;20007;-89
2022/03/22 00:42:56;;;;;;;9.85;5.85;;;9.60;99.90;;;;;;6306824;22;20013;-89
2022/03/22 00:45:28;;;;;;;8.70;6.53;;;9.60;99.90;;;;;;6309297;22;20003;-88
2022/03/22 00:47:56;;;;;;;9.43;6.43;;;9.50;99.90;;;;;;6309258;22;20004;-89
2022/03/22 00:50:28;;;;;;;14.05;5.68;;;9.50;99.90;;;;;;6309648;22;20003;-90
2022/03/22 00:52:56;;;;;;;9.80;5.63;;;9.50;99.90;;;;;;6305955;22;20351;-89
2022/03/22 00:55:23;;;;;;;12.43;6.80;;;9.50;99.90;;;;;;6307971;22;20003;-90
2022/03/22 00:57:51;;;;;;;8.90;6.50;;;9.40;99.90;;;;;;6305617;22;19999;-89
2022/03/22 01:00:18;;;;;;;11.20;6.93;;;9.40;99.90;;;;;;6305712;22;20013;-90
2022/03/22 01:02:49;;;;;;;9.70;6.75;;;9.40;99.90;;;;;;6305181;22;20011;-89
2022/03/22 01:05:18;;;;;;;9.23;6.28;;;9.40;99.90;;;;;;6307007;22;20007;-90
2022/03/22 01:07:45;;;;;;;9.32;7.00;;;9.30;99.90;;;;;;6305908;22;20003;-88
2022/03/22 01:10:13;;;;;;;9.27;7.03;;;9.30;99.90;;;;;;6306178;22;20011;-90
2022/03/22 01:12:41;;;;;;;10.32;6.88;;;9.30;99.90;;;;;;6310835;22;19990;-89
2022/03/22 01:15:33;;;;;;;9.98;7.18;;;9.30;99.90;;;;;;6356877;22;20011;-91
2022/03/22 01:18:03;;;;;;;10.40;7.40;;;9.20;99.90;;;;;;6312203;22;20014;-88
2022/03/22 01:20:31;;;;;;;10.95;7.60;;;9.20;99.90;;;;;;6310738;22;20005;-88
2022/03/22 01:22:57;;;;;;;14.57;7.47;;;9.30;99.90;;;;;;6312031;22;20003;-89
2022/03/22 01:25:27;;;;;;;10.98;7.72;;;9.20;99.90;;;;;;6338591;22;20056;-89
2022/03/22 01:27:54;;;;;;;13.90;8.00;;;9.20;99.90;;;;;;6311043;22;20094;-89
2022/03/22 01:30:22;;;;;;;10.35;7.82;;;9.20;99.90;;;;;;6310909;22;20002;-88
2022/03/22 01:32:50;;;;;;;12.45;8.10;;;9.10;99.90;;;;;;6337507;22;20075;-89
2022/03/22 01:35:17;;;;;;;12.50;8.80;;;9.10;99.90;;;;;;6310748;22;20085;-90
2022/03/22 01:37:44;;;;;;;16.55;8.68;;;9.10;99.90;;;;;;6310943;22;20006;-89
2022/03/22 01:40:10;;;;;;;13.30;8.75;;;9.00;99.90;;;;;;6312099;22;20002;-89
2022/03/22 01:42:36;;;;;;;13.65;9.15;;;9.00;99.90;;;;;;6310647;22;20435;-90
2022/03/22 01:45:03;;;;;;;12.18;8.77;;;8.90;99.90;;;;;;6311232;22;20241;-89
2022/03/22 01:47:29;;;;;;;11.10;8.27;;;9.00;99.90;;;;;;6311119;22;20002;-89
2022/03/22 01:49:55;;;;;;;12.95;8.50;;;9.00;99.90;;;;;;6312207;22;20010;-88
2022/03/22 01:52:27;;;;;;;13.07;9.13;;;9.00;99.90;;;;;;6320810;22;20021;-89
2022/03/22 01:54:55;;;;;;;12.75;8.05;;;8.90;99.90;;;;;;6317261;22;20007;-89
2022/03/22 01:57:25;;;;;;;14.85;8.63;;;8.90;99.90;;;;;;6311113;22;20003;-90
2022/03/22 01:59:51;;;;;;;12.73;9.70;;;8.90;99.90;;;;;;6309576;22;20007;-90
2022/03/22 02:07:47;;;;;;;12.70;8.45;;;8.80;99.90;;;;;;6336975;22;20017;-88
2022/03/22 02:10:14;;;;;;;16.38;9.60;;;8.80;99.90;;;;;;6310627;22;20039;-89
2022/03/22 02:12:41;;;;;;;16.85;9.38;;;8.70;99.90;;;;;;6326487;22;19994;-89
2022/03/22 02:15:07;;;;;;;15.02;9.52;;;8.70;99.90;;;;;;6330397;22;20010;-88
2022/03/22 02:17:34;;;;;;;15.80;9.23;;;8.70;99.90;;;;;;6334378;22;20071;-88
2022/03/22 02:20:01;;;;;;;12.10;9.32;;;8.60;99.90;;;;;;6312207;22;20003;-88
2022/03/22 02:22:39;;;;;;;13.27;9.13;;;8.60;99.90;;;;;;6309200;22;19999;-88
2022/03/22 02:25:05;;;;;;;19.98;9.38;;;8.60;99.90;;;;;;6282596;22;20119;-88
2022/03/22 02:27:34;;;;;;;17.30;9.80;;;8.60;99.90;;;;;;6308349;22;20016;-89
2022/03/22 02:30:00;;;;;;;19.23;9.20;;;8.60;99.90;;;;;;6308978;22;20063;-89
2022/03/22 02:32:26;;;;;;;14.05;9.27;;;8.60;99.90;;;;;;6307707;22;20002;-89
2022/03/22 02:34:52;;;;;;;14.77;9.38;;;8.50;99.90;;;;;;6308442;22;20499;-89
2022/03/22 02:37:18;;;;;;;13.90;8.75;;;8.50;99.90;;;;;;6308671;22;20007;-92
2022/03/22 02:39:44;;;;;;;15.80;9.95;;;8.40;99.90;;;;;;6309685;22;20007;-88
2022/03/22 02:42:11;;;;;;;14.90;9.30;;;8.50;99.90;;;;;;6309057;22;20054;-90
2022/03/22 02:44:36;;;;;;;13.57;9.48;;;8.40;99.90;;;;;;6308830;22;20018;-87
2022/03/22 02:47:03;;;;;;;12.90;9.23;;;8.40;99.90;;;;;;6308265;22;20431;-89
2022/03/22 02:49:31;;;;;;;15.25;9.80;;;8.40;99.90;;;;;;6308391;22;20518;-88
2022/03/22 02:51:57;;;;;;;14.55;9.32;;;8.40;99.90;;;;;;6307750;22;19999;-89
2022/03/22 02:54:22;;;;;;;19.92;10.70;;;8.30;99.90;;;;;;6308729;22;20010;-89
2022/03/22 02:56:48;;;;;;;12.07;9.43;;;8.20;99.90;;;;;;6309067;22;20343;-90
2022/03/22 02:59:14;;;;;;;17.05;9.43;;;8.20;99.90;;;;;;6311775;22;20375;-88
2022/03/22 03:01:39;;;;;;;15.95;10.27;;;8.30;99.90;;;;;;6309727;22;20003;-88
2022/03/22 03:04:05;;;;;;;12.45;9.68;;;8.20;99.90;;;;;;6310315;22;20044;-90
2022/03/22 03:06:31;;;;;;;13.43;9.95;;;8.20;99.90;;;;;;6343144;22;20040;-87
2022/03/22 03:08:58;;;;;;;15.20;9.40;;;8.20;99.90;;;;;;6315925;22;20383;-89
2022/03/22 03:11:25;;;;;;;11.47;9.07;;;8.10;99.90;;;;;;6311007;22;19998;-88
2022/03/22 03:16:39;;;;;;;12.70;10.02;;;8.10;99.90;;;;;;6335929;22;20335;-88
2022/03/22 03:19:05;;;;;;;15.68;10.13;;;8.00;99.90;;;;;;6307955;22;20013;-87
2022/03/22 03:21:33;;;;;;;14.05;10.05;;;8.00;99.90;;;;;;6313796;22;20005;-89
2022/03/22 03:24:00;;;;;;;14.63;10.35;;;8.00;99.90;;;;;;6326447;22;20025;-86
2022/03/22 03:26:26;;;;;;;18.27;10.75;;;8.00;99.90;;;;;;6310230;22;20438;-89
2022/03/22 03:28:55;;;;;;;13.70;10.32;;;7.90;99.90;;;;;;6315301;22;20013;-91
2022/03/22 03:31:22;;;;;;;13.38;10.05;;;7.90;99.90;;;;;;6319769;22;19999;-87
2022/03/22 03:33:48;;;;;;;17.02;9.70;;;7.90;99.90;;;;;;6320227;22;20002;-88
2022/03/22 03:36:15;;;;;;;19.42;10.40;;;7.90;99.90;;;;;;6347303;22;19995;-87
2022/03/22 03:38:44;;;;;;;20.67;9.85;;;7.90;99.90;;;;;;6316370;22;20002;-87
2022/03/22 03:43:54;;;;;;;15.40;9.95;;;7.80;99.90;;;;;;6340516;22;19991;-88
2022/03/22 03:49:06;;;;;;;16.08;9.82;;;7.80;99.90;;;;;;6340085;22;20006;-88
2022/03/22 03:51:33;;;;;;;14.87;9.87;;;7.70;99.90;;;;;;6310116;22;20407;-88
2022/03/22 03:53:59;;;;;;;15.23;9.93;;;7.70;99.90;;;;;;6310171;22;20025;-87
2022/03/22 03:56:25;;;;;;;14.40;9.73;;;7.60;99.90;;;;;;6311032;22;20014;-88
2022/03/22 03:58:51;;;;;;;18.92;10.30;;;7.60;99.90;;;;;;6313152;22;20003;-88
2022/03/22 04:01:16;;;;;;;15.02;10.05;;;7.60;99.90;;;;;;6339638;22;20030;-89
2022/03/22 04:03:42;;;;;;;12.50;9.98;;;7.60;99.90;;;;;;6309884;22;20104;-90
2022/03/22 04:06:08;;;;;;;16.50;10.00;;;7.60;99.90;;;;;;6339856;22;20044;-89
2022/03/22 04:08:33;;;;;;;17.40;9.40;;;7.50;99.90;;;;;;6313131;22;20007;-87
2022/03/22 04:10:59;;;;;;;18.48;10.15;;;7.60;99.90;;;;;;6310451;22;20049;-89
2022/03/22 04:13:25;;;;;;;13.88;10.45;;;7.50;99.90;;;;;;6308955;22;20009;-88
2022/03/22 04:15:52;;;;;;;16.88;9.82;;;7.50;99.90;;;;;;6340141;22;20009;-88
2022/03/22 04:18:17;;;;;;;16.00;10.57;;;7.40;99.90;;;;;;6308613;22;20048;-87
2022/03/22 04:20:43;;;;;;;14.73;10.57;;;7.40;99.90;;;;;;6307971;22;20006;-88
2022/03/22 04:23:09;;;;;;;14.80;10.65;;;7.40;99.90;;;;;;6334183;22;20038;-86
2022/03/22 04:25:35;;;;;;;14.60;10.13;;;7.30;99.90;;;;;;6307222;22;20003;-87
2022/03/22 04:33:34;;;;;;;19.90;10.60;;;7.30;99.90;;;;;;6336981;22;20014;-90
2022/03/22 04:36:00;;;;;;;17.55;9.70;;;7.30;99.90;;;;;;6310130;22;20003;-88
2022/03/22 04:38:25;;;;;;;15.18;10.38;;;7.40;99.90;;;;;;6309015;22;20030;-89
2022/03/22 04:40:52;;;;;;;16.58;10.60;;;7.30;99.90;;;;;;6337082;22;19999;-87
2022/03/22 04:43:17;;;;;;;17.15;10.55;;;7.30;99.90;;;;;;6310799;22;20077;-87
2022/03/22 04:45:43;;;;;;;15.18;10.38;;;7.30;99.90;;;;;;6311983;22;20011;-89
2022/03/22 04:48:09;;;;;;;14.13;10.45;;;7.30;99.90;;;;;;6328238;22;20003;-87
2022/03/22 04:50:35;;;;;;;17.50;11.00;;;7.30;99.90;;;;;;6351958;22;20003;-87
2022/03/22 04:58:30;;;;;;;14.57;9.80;;;7.30;99.90;;;;;;6339759;22;20010;-89
2022/03/22 05:00:56;;;;;;;13.88;9.60;;;7.40;99.90;;;;;;6310309;22;20007;-88
2022/03/22 05:03:22;;;;;;;17.63;10.10;;;7.20;99.90;;;;;;6309551;22;20063;-85
2022/03/22 05:08:33;;;;;;;18.25;10.38;;;7.40;99.90;;;;;;6336416;22;20116;-87
2022/03/22 05:10:59;;;;;;;17.77;9.90;;;7.10;99.90;;;;;;6334730;22;20423;-85
2022/03/22 05:13:24;;;;;;;15.38;9.68;;;7.10;99.90;;;;;;6334560;22;19998;-86
2022/03/22 05:15:51;;;;;;;16.45;9.88;;;7.10;99.90;;;;;;6335685;22;20010;-85
2022/03/22 05:18:17;;;;;;;13.35;9.98;;;7.00;99.90;;;;;;6334738;22;20063;-84
2022/03/22 05:20:43;;;;;;;17.88;10.13;;;7.50;99.90;;;;;;6328858;22;20706;-88
2022/03/22 05:23:09;;;;;;;14.60;9.50;;;7.50;99.90;;;;;;6338005;22;20320;-88
2022/03/22 05:25:36;;;;;;;15.18;9.55;;;7.00;99.90;;;;;;6342941;22;20010;-87
2022/03/22 05:28:03;;;;;;;17.38;10.13;;;7.00;99.90;;;;;;6312386;22;20018;-86
2022/03/22 05:30:31;;;;;;;15.10;9.68;;;7.00;99.90;;;;;;6343205;22;20003;-86
2022/03/22 05:32:56;;;;;;;13.77;9.23;;;7.20;99.90;;;;;;6316869;22;20002;-86
2022/03/22 05:35:32;;;;;;;15.88;10.13;;;6.90;99.90;;;;;;6343904;22;19999;-86
2022/03/22 05:37:57;;;;;;;13.48;9.85;;;6.90;99.90;;;;;;6337797;22;20035;-87
2022/03/22 05:40:23;;;;;;;15.82;9.73;;;7.50;99.90;;;;;;6308730;22;20032;-86
2022/03/22 05:42:49;;;;;;;16.60;10.02;;;6.90;99.90;;;;;;6309181;22;20045;-90
2022/03/22 05:45:15;;;;;;;14.95;9.95;;;7.00;99.90;;;;;;6336948;22;20052;-87
2022/03/22 05:47:41;;;;;;;14.13;9.73;;;7.00;99.90;;;;;;6309461;22;19999;-87
2022/03/22 05:50:07;;;;;;;14.27;10.52;;;7.00;99.90;;;;;;6335129;22;20075;-85
2022/03/22 05:52:33;;;;;;;17.70;9.55;;;7.00;99.90;;;;;;6336814;22;20416;-87
2022/03/22 05:54:59;;;;;;;14.45;9.88;;;6.90;99.90;;;;;;6314131;22;20055;-87
2022/03/22 05:57:24;;;;;;;19.27;10.02;;;6.90;99.90;;;;;;6342414;22;20019;-89
2022/03/22 05:59:50;;;;;;;17.48;9.77;;;7.20;99.90;;;;;;6344988;22;19998;-88
2022/03/22 06:02:16;;;;;;;16.17;9.77;;;6.90;99.90;;;;;;6315331;22;20342;-89
2022/03/22 06:04:41;;;;;;;16.52;10.27;;;6.90;99.90;;;;;;6316781;22;20101;-89
2022/03/22 06:07:08;;;;;;;17.45;9.50;;;6.80;99.90;;;;;;6323775;22;19999;-88
2022/03/22 06:09:36;;;;;;;18.45;9.48;;;6.90;99.90;;;;;;6318444;22;20003;-91
2022/03/22 06:12:08;;;;;;;17.90;9.75;;;6.80;99.90;;;;;;6316746;22;20006;-87
2022/03/22 06:14:34;;;;;;;14.65;9.73;;;6.90;99.90;;;;;;6311860;22;20087;-87
2022/03/22 06:17:01;;;;;;;15.63;9.15;;;6.80;99.90;;;;;;6314429;22;20056;-88
2022/03/22 06:19:28;;;;;;;14.63;9.77;;;7.20;99.90;;;;;;6313498;22;19998;-87
2022/03/22 06:21:54;;;;;;;15.25;9.95;;;7.20;99.90;;;;;;6313428;22;20011;-88
2022/03/22 06:24:21;;;;;;;16.63;9.07;;;6.80;99.90;;;;;;6315790;22;20011;-88
2022/03/22 06:26:46;;;;;;;15.60;9.20;;;7.20;99.90;;;;;;6318969;22;19997;-87
2022/03/22 06:29:16;;;;;;;15.85;9.40;;;6.80;99.90;;;;;;6317291;22;20030;-87
2022/03/22 06:31:44;;;;;;;19.13;10.30;;;6.90;99.90;;;;;;6320555;22;19999;-89
2022/03/22 06:34:14;;;;;;;15.32;9.80;;;7.30;99.90;;;;;;6316338;22;20003;-88
2022/03/22 06:36:40;;;;;;;12.95;9.60;;;7.30;99.90;;;;;;6318161;22;20006;-88
2022/03/22 06:39:05;;;;;;;13.43;9.65;;;6.90;99.90;;;;;;6320525;22;20011;-88
2022/03/22 06:41:31;;;;;;;13.50;9.70;;;6.90;99.90;;;;;;6327214;22;20375;-87
2022/03/22 06:44:04;;;;;;;14.25;9.18;;;6.90;99.90;;;;;;6328996;22;20385;-88
2022/03/22 06:46:32;;;;;;;14.02;8.75;;;6.90;99.90;;;;;;6325785;22;20006;-89
2022/03/22 06:48:58;;;;;;;17.73;9.98;;;6.90;99.90;;;;;;6326770;22;20010;-87
2022/03/22 06:51:24;;;;;;;14.63;9.35;;;7.00;99.90;;;;;;6358222;22;19999;-89
2022/03/22 06:53:50;;;;;;;17.73;9.60;;;7.00;99.90;;;;;;6327221;22;20014;-87
2022/03/22 06:56:15;;;;;;;14.90;9.50;;;7.00;99.90;;;;;;6333142;22;20045;-88
2022/03/22 06:58:42;;;;;;;16.77;10.05;;;7.10;99.90;;;;;;6355554;22;20013;-88
2022/03/22 07:01:10;;;;;;;14.18;9.68;;;7.10;99.90;;;;;;6329317;22;20011;-88
2022/03/22 07:03:36;;;;;;;14.15;9.70;;;7.20;99.90;;;;;;6317373;22;20023;-89
2022/03/22 07:06:04;;;;;;;17.15;9.43;;;7.20;99.90;;;;;;6316156;22;20003;-88
2022/03/22 07:08:32;;;;;;;15.63;9.50;;;7.20;99.90;;;;;;6316391;22;20003;-88
2022/03/22 07:13:43;;;;;;;12.75;8.95;;;7.30;99.90;;;;;;6344018;22;20017;-86
2022/03/22 07:16:08;;;;;;;14.68;9.00;;;7.40;99.90;;;;;;6316681;22;19999;-89
2022/03/22 07:18:35;;;;;;;19.20;9.60;;;7.40;99.90;;;;;;6320912;22;20003;-87
2022/03/22 07:21:04;;;;;;;13.82;10.02;;;7.60;99.90;;;;;;6318405;22;20045;-88
2022/03/22 07:23:32;;;;;;;14.07;8.98;;;7.50;99.90;;;;;;6334269;22;20022;-88
2022/03/22 07:25:58;;;;;;;12.95;9.48;;;7.60;99.90;;;;;;6364459;22;20003;-89
2022/03/22 07:28:26;;;;;;;18.75;9.65;;;7.70;99.90;;;;;;6367154;22;20058;-91
2022/03/22 07:30:58;;;;;;;13.30;8.98;;;7.70;99.90;;;;;;6344327;22;20073;-89
2022/03/22 07:33:27;;;;;;;22.20;8.90;;;7.80;99.90;;;;;;6344809;22;19999;-88
2022/03/22 07:35:53;;;;;;;15.77;9.50;;;7.80;99.90;;;;;;6316028;22;20052;-88
2022/03/22 07:38:19;;;;;;;13.27;8.52;;;7.90;99.90;;;;;;6315020;22;20014;-90
2022/03/22 07:40:47;;;;;;;17.58;9.50;;;7.90;99.90;;;;;;6319769;22;20007;-90
2022/03/22 07:43:13;;;;;;;15.57;8.63;;;7.90;99.90;;;;;;6315827;22;20003;-90
2022/03/22 07:45:38;;;;;;;13.00;9.45;;;8.00;99.90;;;;;;6315897;22;20056;-90
2022/03/22 07:48:08;;;;;;;19.52;8.88;;;8.00;99.90;;;;;;6315039;22;20005;-89
2022/03/22 07:53:19;;;;;;;12.40;8.50;;;8.20;99.90;;;;;;6342869;22;20052;-91
2022/03/22 07:55:46;;;;;;;14.15;8.02;;;8.30;99.90;;;;;;6290789;22;20123;-89
2022/03/22 07:58:12;;;;;;;12.93;8.48;;;8.40;99.90;;;;;;6318331;22;20018;-87
2022/03/22 08:01:00;;;;;;;15.25;8.40;;;8.50;99.90;;;;;;6346651;22;20002;-90
2022/03/22 08:03:27;;;;;;;14.82;8.20;;;8.70;99.90;;;;;;6234610;23;20012;-89
2022/03/22 08:05:59;;;;;;;12.38;7.72;;;8.80;99.90;;;;;;6235962;23;20031;-91
2022/03/22 08:08:25;;;;;;;13.93;8.00;;;8.90;99.90;;;;;;6235485;23;20031;-89
2022/03/22 08:10:52;;;;;;;15.10;7.82;;;9.00;99.90;;;;;;6232931;23;20004;-89
2022/03/22 08:13:34;;;;;;;10.77;7.82;;;9.20;99.90;;;;;;6259294;23;20083;-90
2022/03/22 08:16:00;;;;;;;14.48;7.78;;;9.30;99.90;;;;;;6233061;23;20024;-89
2022/03/22 08:18:25;;;;;;;15.75;7.88;;;9.40;99.90;;;;;;6234979;23;20326;-88
2022/03/22 08:20:51;;;;;;;14.15;8.35;;;9.50;99.90;;;;;;6233686;23;20004;-89
2022/03/22 08:23:21;;;;;;;13.45;7.60;;;9.60;99.90;;;;;;6257226;23;20008;-89
2022/03/22 08:25:50;;;;;;;15.27;8.63;;;9.70;99.90;;;;;;6197933;23;20047;-90
2022/03/22 08:28:17;;;;;;;13.15;7.50;;;9.80;99.90;;;;;;6196808;23;20001;-90
2022/03/22 08:30:45;;;;;;;16.30;8.02;;;9.90;99.90;;;;;;6171006;23;20025;-91
2022/03/22 08:33:13;;;;;;;12.32;7.70;;;10.20;99.90;;;;;;6172686;23;20001;-90
2022/03/22 08:35:42;;;;;;;;;;;10.00;99.70;;;;;;6256920;23;20042;-90
2022/03/22 08:38:08;;;;;;;;;;;10.10;99.90;;;;;;6258033;23;19906;-90
2022/03/22 08:40:37;;;;;;;12.00;6.97;;;10.10;98.10;;;;;;6260086;23;20002;-90
2022/03/22 08:43:07;;;;;;;14.70;7.35;;;10.20;99.90;;;;;;6257742;23;20035;-90
2022/03/22 08:45:37;;;;;;;15.27;7.38;;;10.30;95.30;;;;;;6253451;23;20016;-90
2022/03/22 08:48:09;;;;;;;13.38;7.90;;;10.30;98.90;;;;;;6255886;23;20001;-89
2022/03/22 08:50:40;;;;;;;13.95;7.43;;;10.60;98.80;;;;;;6230386;23;20007;-90
2022/03/22 08:53:08;;;;;;;13.32;7.22;;;10.70;98.20;;;;;;6229929;23;20007;-89
2022/03/22 08:55:35;;;;;;;15.43;7.05;;;10.70;97.00;;;;;;6219829;22;20054;-91
2022/03/22 08:58:06;;;;;;;16.05;6.90;;;10.60;95.60;;;;;;6319791;22;20112;-90
2022/03/22 09:00:48;;;;;;;11.93;6.90;;;10.70;96.90;;;;;;6341313;22;20022;-89
2022/03/22 09:03:19;;;;;;;13.73;7.13;;;;;;;;;;6342491;22;20078;-89
2022/03/22 09:08:30;;;;;;;10.90;6.88;;;10.90;95.90;;;;;;6341921;22;20010;-89
2022/03/22 09:10:58;;;;;;;12.43;7.05;;;10.90;95.30;;;;;;6313297;22;20397;-89
2022/03/22 09:13:28;;;;;;;13.50;7.10;;;10.90;94.00;;;;;;6341290;22;20070;-89
2022/03/22 09:15:55;;;;;;;15.73;7.00;;;10.80;93.00;;;;;;6313058;22;20431;-89
2022/03/22 09:18:21;;;;;;;13.35;6.97;;;10.70;95.40;;;;;;6312933;22;20010;-89
2022/03/22 09:20:47;;;;;;;11.65;7.03;;;10.60;94.50;;;;;;6314926;22;20006;-89
2022/03/22 09:23:14;;;;;;;13.88;6.85;;;10.50;94.90;;;;;;6314017;22;20422;-89
2022/03/22 09:25:44;;;;;;;11.73;6.57;;;10.40;94.60;;;;;;6320178;22;20009;-90
2022/03/22 09:28:19;;;;;;;;;;;10.30;93.70;;;;;;6344097;22;19999;-88
2022/03/22 09:30:50;;;;;;;11.27;7.25;;;10.30;91.60;;;;;;6318496;22;20318;-89
2022/03/22 09:33:17;;;;;;;12.98;7.35;;;10.30;95.40;;;;;;6318117;22;19999;-88
2022/03/22 09:35:48;;;;;;;11.00;7.50;;;10.60;96.30;;;;;;6318493;22;20003;-88
2022/03/22 09:38:15;;;;;;;12.45;7.55;;;10.90;97.60;;;;;;6318068;22;20510;-89
2022/03/22 09:40:48;;;;;;;11.75;7.22;;;11.40;96.70;;;;;;6347192;22;20003;-89
2022/03/22 09:43:14;;;;;;;13.48;7.18;;;11.70;96.10;;;;;;6319620;22;20033;-89
2022/03/22 09:45:43;;;;;;;11.98;7.00;;;12.00;93.90;;;;;;6318815;22;20011;-90
2022/03/22 09:48:13;;;;;;;15.32;7.47;;;12.30;93.00;;;;;;6347974;22;19998;-89
2022/03/22 09:53:23;;;;;;;13.50;7.00;;;12.50;91.60;;;;;;6347510;22;20009;-89
2022/03/22 09:55:49;;;;;;;20.50;7.00;;;12.50;90.90;;;;;;6349352;22;20003;-89
2022/03/22 09:58:15;;;;;;;15.93;6.88;;;12.50;90.00;;;;;;6329045;22;19998;-90
2022/03/22 10:00:45;;;;;;;8.57;6.30;;;12.50;90.80;;;;;;6337497;22;20065;-89
2022/03/22 10:03:20;;;;;;;11.15;6.97;;;11.90;90.80;;;;;;6364344;22;19986;-90
2022/03/22 10:06:03;;;;;;;14.85;6.78;;;12.70;91.70;;;;;;6332125;22;20014;-90
2022/03/22 10:08:29;;;;;;;10.48;6.63;;;12.60;90.90;;;;;;6326467;22;20189;-89
2022/03/22 10:11:02;;;;;;;11.93;7.38;;;12.90;92.40;;;;;;6320446;22;20003;-89
2022/03/22 10:13:28;;;;;;;12.60;7.68;;;12.80;92.20;;;;;;6321179;22;20002;-90
2022/03/22 10:16:05;;;;;;;13.13;7.40;;;12.70;93.10;;;;;;6319995;22;20011;-90
2022/03/22 10:18:34;;;;;;;12.85;7.18;;;;;;;;;;6320299;22;20048;-91
2022/03/22 10:21:02;;;;;;;13.90;6.68;;;12.90;99.90;;;;;;6349627;22;19999;-89
2022/03/22 10:23:32;;;;;;;11.43;6.55;;;13.00;99.90;;;;;;6315427;22;20007;-89
2022/03/22 10:26:06;;;;;;;15.07;6.72;;;13.00;99.90;;;;;;6314816;22;20014;-90
2022/03/22 10:28:33;;;;;;;13.75;7.00;;;13.30;99.90;;;;;;6313449;22;19999;-89
2022/03/22 10:30:59;;;;;;;14.15;6.88;;;13.00;99.90;;;;;;6316619;22;20003;-89
2022/03/22 10:33:25;;;;;;;10.68;6.38;;;13.10;99.90;;;;;;6312927;22;20025;-90
2022/03/22 10:35:51;;;;;;;11.07;6.53;;;13.30;99.90;;;;;;6317332;22;20002;-90
2022/03/22 10:38:19;;;;;;;12.52;6.40;;;13.40;99.90;;;;;;6315517;22;20032;-90
2022/03/22 10:40:49;;;;;;;13.47;6.80;;;13.50;99.90;;;;;;6315454;22;19999;-90
2022/03/22 10:43:19;;;;;;;15.48;7.40;;;13.60;99.90;;;;;;6313802;22;20253;-89
2022/03/22 10:45:47;;;;;;;11.05;6.68;;;13.90;99.90;;;;;;6312972;22;20037;-90
2022/03/22 10:48:24;;;;;;;7.75;6.40;;;13.70;99.90;;;;;;6310026;22;20041;-89
2022/03/22 10:50:51;;;;;;;12.17;6.10;;;13.80;99.90;;;;;;6316903;22;20003;-90
2022/03/22 10:53:18;;;;;;;11.85;6.30;;;13.80;99.90;;;;;;6323294;22;20006;-89
2022/03/22 10:55:47;;;;;;;11.05;6.20;;;13.80;99.90;;;;;;6321012;22;19998;-89
2022/03/22 10:58:17;;;;;;;9.43;6.32;;;13.70;83.20;;;;;;6348729;22;20011;-89
2022/03/22 11:00:44;;;;;;;10.18;6.28;;;13.70;84.40;;;;;;6311735;22;20347;-89
2022/03/22 11:03:12;;;;;;;9.57;6.80;;;13.70;83.50;;;;;;6321196;22;20003;-89
2022/03/22 11:05:41;;;;;;;11.13;6.22;;;13.70;83.20;;;;;;6316316;22;20007;-89
2022/03/22 11:08:13;;;;;;;11.93;6.68;;;13.70;85.30;;;;;;6322654;22;20018;-89
2022/03/22 11:10:44;;;;;;;10.55;6.53;;;13.80;87.70;;;;;;6322329;22;20020;-90
2022/03/22 11:13:13;;;;;;;13.23;7.47;;;13.90;84.60;;;;;;6347048;22;20002;-89
2022/03/22 11:15:50;;;;;;;9.98;6.03;;;13.90;82.20;;;;;;6315792;22;20026;-89
2022/03/22 11:18:19;;;;;;;10.20;5.97;;;13.80;81.40;;;;;;6294206;22;20014;-89
2022/03/22 11:20:55;;;;;;;11.80;6.20;;;13.80;85.00;;;;;;6314056;22;20006;-90
2022/03/22 11:23:23;;;;;;;10.05;5.93;;;13.90;81.20;;;;;;6316024;22;20003;-89
2022/03/22 11:25:49;;;;;;;12.38;6.57;;;14.00;84.80;;;;;;6315458;22;20387;-89
2022/03/22 11:28:21;;;;;;;11.30;6.10;;;14.10;84.90;;;;;;6312603;22;19999;-89
2022/03/22 11:30:48;;;;;;;12.43;6.60;;;14.10;84.70;;;;;;6310113;22;20006;-89
2022/03/22 11:36:19;;;;;;;11.50;6.47;;;14.10;84.20;;;;;;6340936;22;20079;-90
2022/03/22 11:38:53;;;;;;;11.10;6.00;;;14.20;84.50;;;;;;6315065;22;20002;-89
2022/03/22 11:44:34;;;;;;;14.05;5.93;;;14.20;84.80;;;;;;6344501;22;20071;-89
2022/03/22 11:47:20;;;;;;;10.32;5.93;;;14.20;85.00;;;;;;6318494;22;20082;-90
2022/03/22 11:50:02;;;;;;;11.02;5.82;;;14.20;81.40;;;;;;6311334;22;20002;-91
2022/03/22 11:52:40;;;;;;;11.85;5.75;;;14.20;82.30;;;;;;6318464;22;20346;-89
2022/03/22 11:55:11;;;;;;;13.38;5.95;;;14.20;85.60;;;;;;6315818;22;20051;-90
2022/03/22 11:57:45;;;;;;;8.60;6.05;;;14.20;85.10;;;;;;6344273;22;20007;-90
2022/03/22 12:00:15;;;;;;;10.88;6.35;;;14.20;82.20;;;;;;6317961;22;19998;-90
2022/03/22 12:02:52;;;;;;;10.73;5.95;;;14.30;84.10;;;;;;6317562;22;20007;-90
2022/03/22 12:05:20;;;;;;;7.85;5.05;;;14.30;79.00;;;;;;6341867;22;20363;-89
2022/03/22 12:07:47;;;;;;;;;;;14.30;82.00;;;;;;6325576;22;20002;-89
2022/03/22 12:10:17;;;;;;;11.70;6.35;;;14.30;85.00;;;;;;6353851;22;19899;-89
2022/03/22 12:12:52;;;;;;;14.10;6.15;;;14.30;82.70;;;;;;6327169;22;20003;-90
2022/03/22 12:15:23;;;;;;;10.80;6.40;;;14.20;82.80;;;;;;6352471;22;20015;-89
2022/03/22 12:17:49;;;;;;;14.75;7.15;;;14.30;82.20;;;;;;6324599;22;20045;-90
2022/03/22 12:20:19;;;;;;;9.63;5.97;;;14.20;82.30;;;;;;6318409;22;20007;-90
2022/03/22 12:22:51;;;;;;;11.57;6.32;;;14.20;80.70;;;;;;6319905;22;20003;-90
2022/03/22 12:25:31;;;;;;;15.30;6.30;;;14.20;81.10;;;;;;6323567;22;20070;-90
2022/03/22 12:27:59;;;;;;;11.77;5.72;;;14.20;82.90;;;;;;6349037;22;20400;-88
2022/03/22 12:30:46;;;;;;;10.82;5.88;;;14.30;79.60;;;;;;6320032;22;20003;-89
2022/03/22 12:33:26;;;;;;;9.85;5.75;;;14.30;83.30;;;;;;6322381;22;19991;-88
2022/03/22 12:35:51;;;;;;;11.95;6.25;;;14.30;82.30;;;;;;6334351;22;20050;-89
2022/03/22 12:38:18;;;;;;;8.02;5.60;;;14.30;82.40;;;;;;6334020;22;19983;-90
2022/03/22 12:40:44;;;;;;;10.70;6.32;;;14.40;81.70;;;;;;6328181;22;20014;-89
2022/03/22 12:43:13;;;;;;;9.48;6.20;;;14.40;84.50;;;;;;6316835;22;20007;-89
2022/03/22 12:45:45;;;;;;;13.20;6.78;;;14.40;84.00;;;;;;6344427;22;20431;-89
2022/03/22 12:48:19;;;;;;;8.70;5.72;;;14.40;78.20;;;;;;6324443;22;19998;-89
2022/03/22 12:50:44;;;;;;;10.30;5.93;;;14.40;80.50;;;;;;6324353;22;20029;-91
2022/03/22 12:53:12;;;;;;;11.02;6.20;;;14.40;78.40;;;;;;6323887;22;20006;-91
2022/03/22 12:55:41;;;;;;;10.02;5.93;;;14.30;81.60;;;;;;6349626;22;20395;-89
2022/03/22 12:58:29;;;;;;;10.52;6.05;;;14.30;81.30;;;;;;6346524;22;20006;-90
2022/03/22 13:00:55;;;;;;;11.13;6.03;;;14.40;80.10;;;;;;6346565;22;20077;-90
2022/03/22 13:03:24;;;;;;;12.77;6.25;;;14.40;78.80;;;;;;6344852;22;20009;-88
2022/03/22 13:05:51;;;;;;;10.65;5.90;;;14.40;80.30;;;;;;6319768;22;20006;-89
2022/03/22 13:11:26;;;;;;;9.50;5.97;;;14.40;81.30;;;;;;6323437;22;20003;-88
2022/03/22 13:11:32;;;;;;;10.43;6.05;;;14.50;81.30;;;;;;6348093;22;19999;-89
2022/03/22 13:16:58;;;;;;;9.57;5.63;;;14.60;81.30;;;;;;6346680;22;20052;-88
2022/03/22 13:19:31;;;;;;;13.25;6.30;;;14.60;79.20;;;;;;6317714;22;20006;-91
2022/03/22 13:22:00;;;;;;;12.93;6.03;;;14.60;74.40;;;;;;6321056;22;20469;-90
2022/03/22 13:24:27;;;;;;;13.27;6.15;;;14.60;80.20;;;;;;6321998;22;20003;-90
2022/03/22 13:27:02;;;;;;;10.50;6.10;;;14.70;81.20;;;;;;6318087;22;20090;-90
2022/03/22 13:29:39;;;;;;;10.68;5.78;;;14.70;76.20;;;;;;6318282;22;20377;-89
2022/03/22 13:32:09;;;;;;;13.35;5.90;;;14.70;79.10;;;;;;6318933;22;20007;-90
2022/03/22 13:34:42;;;;;;;12.52;6.28;;;14.70;79.50;;;;;;6318442;22;20061;-89
2022/03/22 13:37:12;;;;;;;10.63;5.43;;;14.80;73.50;;;;;;6317482;22;20376;-89
2022/03/22 13:39:40;;;;;;;11.13;6.38;;;14.80;77.60;;;;;;6317669;22;20045;-89